createdAt,value
2024-03-10T00:00:21.455Z,16.000000
2024-03-10T00:05:23.859Z,16.000000
2024-03-10T00:10:25.126Z,16.000000
2024-03-10T00:15:27.096Z,16.000000
2024-03-10T00:20:29.122Z,16.533333
2024-03-10T00:25:30.915Z,18.000000
2024-03-10T00:30:32.771Z,17.733333
2024-03-10T00:35:34.903Z,17.000000
2024-03-10T00:40:16.647Z,16.000000
2024-03-10T00:45:19.190Z,14.000000
2024-03-10T00:50:21.359Z,15.333333
2024-03-10T00:55:24.179Z,18.000000
2024-03-10T01:00:26.152Z,18.266667
2024-03-10T01:05:28.441Z,19.000000
2024-03-10T01:10:30.290Z,18.733333
2024-03-10T01:15:32.825Z,18.000000
2024-03-10T01:20:34.861Z,17.666667
2024-03-10T01:25:16.815Z,17.000000
2024-03-10T01:30:18.776Z,17.000000
2024-03-10T01:35:20.835Z,17.000000
2024-03-10T01:40:22.842Z,17.000000
2024-03-10T01:45:24.657Z,17.000000
2024-03-10T01:50:26.672Z,16.466667
2024-03-10T01:55:28.478Z,15.000000
2024-03-10T02:00:30.407Z,15.800000
2024-03-10T02:05:32.353Z,18.000000
2024-03-10T02:10:34.074Z,18.333333
2024-03-10T02:15:35.889Z,19.000000
2024-03-10T02:20:17.836Z,21.333333
2024-03-10T02:25:20.286Z,26.000000
2024-03-10T02:30:22.359Z,24.857143
2024-03-10T02:35:25.046Z,22.000000
2024-03-10T02:40:27.597Z,22.000000
2024-03-10T02:45:29.898Z,22.000000
2024-03-10T02:50:32.201Z,20.666667
2024-03-10T02:55:34.254Z,17.000000
2024-03-10T03:00:15.836Z,23.666667
2024-03-10T03:05:17.726Z,37.000000
2024-03-10T03:10:19.624Z,33.333333
2024-03-10T03:15:21.447Z,26.000000
2024-03-10T03:20:23.369Z,31.428571
2024-03-10T03:25:25.238Z,45.000000
2024-03-10T03:30:26.987Z,40.200000
2024-03-10T03:35:29.164Z,27.000000
2024-03-10T03:40:31.039Z,26.733333
2024-03-10T03:45:32.869Z,26.000000
2024-03-10T03:50:34.819Z,27.000000
2024-03-10T03:55:16.412Z,29.000000
2024-03-10T04:00:18.444Z,27.333333
2024-03-10T04:05:21.014Z,24.000000
2024-03-10T04:10:22.936Z,24.285714
2024-03-10T04:15:24.654Z,25.000000
2024-03-10T04:20:26.465Z,24.733333
2024-03-10T04:25:28.284Z,24.000000
2024-03-10T04:30:30.358Z,24.800000
2024-03-10T04:35:32.445Z,27.000000
2024-03-10T04:40:35.147Z,26.666667
2024-03-10T04:45:17.640Z,26.000000
2024-03-10T04:50:19.633Z,27.000000
2024-03-10T04:55:21.460Z,29.000000
2024-03-10T05:00:23.355Z,28.714286
2024-03-10T05:05:25.439Z,28.000000
2024-03-10T05:10:27.368Z,27.733333
2024-03-10T05:15:29.070Z,27.000000
2024-03-10T05:20:31.401Z,31.000000
2024-03-10T05:25:33.190Z,42.000000
2024-03-10T05:30:35.209Z,39.333333
2024-03-10T05:35:16.861Z,34.000000
2024-03-10T05:40:18.833Z,35.000000
2024-03-10T05:45:21.159Z,37.000000
2024-03-10T05:50:23.252Z,33.857143
2024-03-10T05:55:24.869Z,26.000000
2024-03-10T06:00:26.647Z,26.533333
2024-03-10T06:05:28.734Z,28.000000
2024-03-10T06:10:30.710Z,26.933333
2024-03-10T06:15:32.673Z,24.000000
2024-03-10T06:20:34.662Z,25.333333
2024-03-10T06:25:16.366Z,28.000000
2024-03-10T06:30:18.401Z,25.333333
2024-03-10T06:35:20.303Z,20.000000
2024-03-10T06:40:22.308Z,19.714286
2024-03-10T06:45:24.192Z,19.000000
2024-03-10T06:50:26.200Z,19.533333
2024-03-10T06:55:28.050Z,21.000000
2024-03-10T07:00:30.166Z,19.666667
2024-03-10T07:05:32.273Z,16.000000
2024-03-10T07:10:33.838Z,17.333333
2024-03-10T07:15:35.885Z,20.000000
2024-03-10T07:20:17.905Z,20.666667
2024-03-10T07:25:19.870Z,22.000000
2024-03-10T07:30:21.703Z,20.666667
2024-03-10T07:35:23.708Z,18.000000
2024-03-10T07:40:25.665Z,19.600000
2024-03-10T07:45:27.483Z,24.000000
2024-03-10T07:50:29.423Z,22.666667
2024-03-10T07:55:31.333Z,19.000000
2024-03-10T08:00:33.087Z,18.466667
2024-03-10T08:05:35.073Z,17.000000
2024-03-10T08:10:16.786Z,18.333333
2024-03-10T08:15:19.103Z,21.000000
2024-03-10T08:20:20.763Z,19.666667
2024-03-10T08:25:22.605Z,17.000000
2024-03-10T08:30:24.451Z,19.133333
2024-03-10T08:35:26.281Z,25.000000
2024-03-10T08:40:28.021Z,25.266667
2024-03-10T08:45:30.208Z,26.000000
2024-03-10T08:50:31.827Z,26.000000
2024-03-10T08:55:33.569Z,26.000000
2024-03-10T09:00:35.748Z,26.333333
2024-03-10T09:05:17.750Z,27.000000
2024-03-10T09:10:19.412Z,25.666667
2024-03-10T09:15:21.277Z,23.000000
2024-03-10T09:20:23.756Z,23.571429
2024-03-10T09:25:25.378Z,25.000000
2024-03-10T09:30:27.317Z,24.733333
2024-03-10T09:35:29.906Z,24.000000
2024-03-10T09:40:31.357Z,24.800000
2024-03-10T09:45:33.125Z,27.000000
2024-03-10T09:50:34.797Z,24.333333
2024-03-10T09:55:17.353Z,19.000000
2024-03-10T10:00:19.423Z,20.666667
2024-03-10T10:05:21.429Z,24.000000
2024-03-10T10:10:23.157Z,23.714286
2024-03-10T10:15:24.951Z,23.000000
2024-03-10T10:20:27.363Z,24.066667
2024-03-10T10:25:28.740Z,27.000000
2024-03-10T10:30:30.624Z,27.533333
2024-03-10T10:35:32.801Z,29.000000
2024-03-10T10:40:34.579Z,28.333333
2024-03-10T10:45:16.229Z,27.000000
2024-03-10T10:50:18.084Z,26.333333
2024-03-10T10:55:19.927Z,25.000000
2024-03-10T11:00:21.857Z,25.000000
2024-03-10T11:05:23.845Z,25.000000
2024-03-10T11:10:25.695Z,23.933333
2024-03-10T11:15:27.605Z,21.000000
2024-03-10T11:20:32.526Z,21.800000
2024-03-10T11:25:31.156Z,24.000000
2024-03-10T11:30:33.120Z,24.533333
2024-03-10T11:35:34.951Z,26.000000
2024-03-10T11:40:16.575Z,25.666667
2024-03-10T11:45:18.446Z,25.000000
2024-03-10T11:50:20.278Z,24.666667
2024-03-10T11:55:22.255Z,24.000000
2024-03-10T12:00:27.492Z,26.666667
2024-03-10T12:05:26.970Z,34.000000
2024-03-10T12:10:28.864Z,36.133333
2024-03-10T12:15:30.961Z,42.000000
2024-03-10T12:20:33.567Z,42.533333
2024-03-10T12:25:35.333Z,44.000000
2024-03-10T12:30:17.081Z,42.666667
2024-03-10T12:35:19.505Z,40.000000
2024-03-10T12:40:21.376Z,39.000000
2024-03-10T12:45:23.277Z,37.000000
2024-03-10T12:50:25.194Z,37.266667
2024-03-10T12:55:27.263Z,38.000000
2024-03-10T13:00:30.649Z,38.533333
2024-03-10T13:05:31.880Z,40.000000
2024-03-10T13:10:34.000Z,42.666667
2024-03-10T13:15:35.505Z,50.000000
2024-03-10T13:20:17.338Z,47.333333
2024-03-10T13:25:19.320Z,42.000000
2024-03-10T13:30:20.980Z,42.000000
2024-03-10T13:35:22.926Z,42.000000
2024-03-10T13:40:24.821Z,40.933333
2024-03-10T13:45:35.836Z,38.000000
2024-03-10T13:50:28.790Z,35.333333
2024-03-10T13:55:30.687Z,28.000000
2024-03-10T14:00:32.627Z,25.333333
2024-03-10T14:05:34.408Z,18.000000
2024-03-10T14:10:16.209Z,16.000000
2024-03-10T14:15:18.028Z,12.000000
2024-03-10T14:20:20.312Z,11.000000
2024-03-10T14:25:21.878Z,9.000000
2024-03-10T14:30:23.589Z,9.857143
2024-03-10T14:35:26.498Z,12.000000
2024-03-10T14:40:27.393Z,10.933333
2024-03-10T14:45:29.136Z,8.000000
2024-03-10T14:50:31.375Z,8.266667
2024-03-10T14:55:33.155Z,9.000000
2024-03-10T15:00:36.436Z,9.000000
2024-03-10T15:05:17.194Z,9.000000
2024-03-10T15:10:19.625Z,8.666667
2024-03-10T15:15:21.430Z,8.000000
2024-03-10T15:20:23.301Z,7.428571
2024-03-10T15:25:25.370Z,6.000000
2024-03-10T15:30:27.275Z,7.066667
2024-03-10T15:35:29.853Z,10.000000
2024-03-10T15:40:31.937Z,9.466667
2024-03-10T15:45:34.281Z,8.000000
2024-03-10T15:50:16.381Z,8.333333
2024-03-10T15:55:18.476Z,9.000000
2024-03-10T16:00:20.419Z,8.000000
2024-03-10T16:05:22.379Z,6.000000
2024-03-10T16:10:24.640Z,7.066667
2024-03-10T16:15:28.458Z,10.000000
2024-03-10T16:20:28.419Z,9.733333
2024-03-10T16:25:30.372Z,9.000000
2024-03-10T16:30:32.401Z,8.733333
2024-03-10T16:35:34.359Z,8.000000
2024-03-10T16:40:16.107Z,8.333333
2024-03-10T16:45:17.989Z,9.000000
2024-03-10T16:50:20.175Z,9.333333
2024-03-10T16:55:21.998Z,10.000000
2024-03-10T17:00:23.810Z,9.428571
2024-03-10T17:05:25.814Z,8.000000
2024-03-10T17:10:27.783Z,8.266667
2024-03-10T17:15:29.436Z,9.000000
2024-03-10T17:20:31.728Z,8.466667
2024-03-10T17:25:34.276Z,7.000000
2024-03-10T17:30:35.823Z,7.000000
2024-03-10T17:35:17.589Z,7.000000
2024-03-10T17:40:19.618Z,7.000000
2024-03-10T17:45:21.442Z,7.000000
2024-03-10T17:50:23.741Z,7.000000
2024-03-10T17:55:26.258Z,7.000000
2024-03-10T18:00:28.253Z,7.800000
2024-03-10T18:05:30.033Z,10.000000
2024-03-10T18:10:32.176Z,9.200000
2024-03-10T18:15:35.363Z,7.000000
2024-03-10T18:20:18.197Z,7.000000
2024-03-10T18:25:20.917Z,7.000000
2024-03-10T18:30:24.015Z,7.000000
2024-03-10T18:35:26.367Z,7.000000
2024-03-10T18:40:28.668Z,7.266667
2024-03-10T18:45:31.498Z,8.000000
2024-03-10T18:50:33.717Z,8.000000
2024-03-10T18:55:16.591Z,8.000000
2024-03-10T19:00:19.327Z,8.333333
2024-03-10T19:05:22.198Z,9.000000
2024-03-10T19:10:25.053Z,9.000000
2024-03-10T19:15:27.212Z,9.000000
2024-03-10T19:20:31.631Z,8.466667
2024-03-10T19:25:32.703Z,7.000000
2024-03-10T19:30:35.749Z,6.666667
2024-03-10T19:35:17.883Z,6.000000
2024-03-10T19:40:20.269Z,6.333333
2024-03-10T19:45:22.851Z,7.000000
2024-03-10T19:50:25.606Z,7.000000
2024-03-10T19:55:27.924Z,7.000000
2024-03-10T20:00:29.887Z,7.000000
2024-03-10T20:05:31.863Z,7.000000
2024-03-10T20:10:34.879Z,7.333333
2024-03-10T20:15:17.087Z,8.000000
2024-03-10T20:20:19.414Z,7.666667
2024-03-10T20:25:21.307Z,7.000000
2024-03-10T20:30:23.264Z,7.285714
2024-03-10T20:35:25.350Z,8.000000
2024-03-10T20:40:27.180Z,7.733333
2024-03-10T20:45:29.192Z,7.000000
2024-03-10T20:50:31.046Z,7.000000
2024-03-10T20:55:33.011Z,7.000000
2024-03-10T21:00:35.048Z,7.000000
2024-03-10T21:05:16.762Z,7.000000
2024-03-10T21:10:18.533Z,6.666667
2024-03-10T21:15:20.380Z,6.000000
2024-03-10T21:20:22.435Z,6.000000
2024-03-10T21:25:24.640Z,6.000000
2024-03-10T21:30:26.141Z,6.266667
2024-03-10T21:35:28.257Z,7.000000
2024-03-10T21:40:30.378Z,7.000000
2024-03-10T21:45:32.243Z,7.000000
2024-03-10T21:50:34.205Z,6.333333
2024-03-10T21:55:35.872Z,5.000000
2024-03-10T22:00:18.450Z,6.000000
2024-03-10T22:05:19.942Z,8.000000
2024-03-10T22:10:22.398Z,8.000000
2024-03-10T22:15:24.906Z,8.000000
2024-03-10T22:20:27.118Z,8.000000
2024-03-10T22:25:28.825Z,8.000000
2024-03-10T22:30:31.512Z,8.000000
2024-03-10T22:35:33.142Z,8.000000
2024-03-10T22:40:34.917Z,7.666667
2024-03-10T22:45:24.039Z,7.000000
2024-03-10T22:50:18.561Z,7.000000
2024-03-10T22:55:20.520Z,7.000000
2024-03-10T23:00:22.225Z,6.714286
2024-03-10T23:05:24.231Z,6.000000
2024-03-10T23:10:26.539Z,6.800000
2024-03-10T23:15:28.434Z,9.000000
2024-03-10T23:20:30.205Z,8.466667
2024-03-10T23:25:32.051Z,7.000000
2024-03-10T23:30:34.004Z,7.000000
2024-03-10T23:35:16.127Z,7.000000
2024-03-10T23:40:17.931Z,6.666667
2024-03-10T23:45:19.805Z,6.000000
2024-03-10T23:50:22.099Z,7.000000
2024-03-10T23:55:23.605Z,9.000000
